sensor_id;sensor_type;location;lat;lon;timestamp;P1;durP1;ratioP1;P2;durP2;ratioP2
3999;SDS011;2014;53.604;10.112;2022-10-16T17:14:57;5.50;;;1.97;;
3999;SDS011;2014;53.604;10.112;2022-10-16T17:17:25;3.90;;;1.83;;
3999;SDS011;2014;53.604;10.112;2022-10-16T17:20:00;4.27;;;1.67;;
3999;SDS011;2014;53.604;10.112;2022-10-16T17:22:27;9.03;;;2.23;;
3999;SDS011;2014;53.604;10.112;2022-10-16T17:24:54;4.07;;;1.73;;
3999;SDS011;2014;53.604;10.112;2022-10-16T17:27:21;6.27;;;1.90;;
3999;SDS011;2014;53.604;10.112;2022-10-16T17:29:50;4.47;;;1.90;;
3999;SDS011;2014;53.604;10.112;2022-10-16T17:32:19;7.40;;;2.70;;
3999;SDS011;2014;53.604;10.112;2022-10-16T17:34:47;9.20;;;2.43;;
3999;SDS011;2014;53.604;10.112;2022-10-16T17:37:15;6.43;;;3.00;;
3999;SDS011;2014;53.604;10.112;2022-10-16T17:39:42;3.70;;;3.40;;
3999;SDS011;2014;53.604;10.112;2022-10-16T17:42:09;4.23;;;2.70;;
3999;SDS011;2014;53.604;10.112;2022-10-16T17:44:37;3.30;;;1.93;;
3999;SDS011;2014;53.604;10.112;2022-10-16T17:47:04;4.60;;;2.33;;
3999;SDS011;2014;53.604;10.112;2022-10-16T17:49:33;4.13;;;2.70;;
3999;SDS011;2014;53.604;10.112;2022-10-16T17:52:00;11.57;;;2.40;;
3999;SDS011;2014;53.604;10.112;2022-10-16T17:54:27;5.00;;;2.03;;
3999;SDS011;2014;53.604;10.112;2022-10-16T17:56:55;4.50;;;2.50;;
3999;SDS011;2014;53.604;10.112;2022-10-16T17:59:22;4.50;;;3.00;;
3999;SDS011;2014;53.604;10.112;2022-10-16T18:01:49;3.17;;;2.50;;
3999;SDS011;2014;53.604;10.112;2022-10-16T18:04:17;10.10;;;3.30;;
3999;SDS011;2014;53.604;10.112;2022-10-16T18:06:45;7.80;;;2.73;;
3999;SDS011;2014;53.604;10.112;2022-10-16T18:09:14;6.93;;;3.23;;
3999;SDS011;2014;53.604;10.112;2022-10-16T18:11:43;5.40;;;2.80;;
3999;SDS011;2014;53.604;10.112;2022-10-16T18:14:11;4.93;;;2.57;;
3999;SDS011;2014;53.604;10.112;2022-10-16T18:16:39;4.57;;;2.97;;
3999;SDS011;2014;53.604;10.112;2022-10-16T18:19:08;7.07;;;2.70;;
3999;SDS011;2014;53.604;10.112;2022-10-16T18:21:36;7.10;;;2.40;;
3999;SDS011;2014;53.604;10.112;2022-10-16T18:24:10;8.87;;;3.23;;
3999;SDS011;2014;53.604;10.112;2022-10-16T18:26:37;6.33;;;2.50;;
3999;SDS011;2014;53.604;10.112;2022-10-16T18:29:05;8.00;;;3.40;;
3999;SDS011;2014;53.604;10.112;2022-10-16T18:31:32;10.03;;;3.33;;
3999;SDS011;2014;53.604;10.112;2022-10-16T18:34:00;5.73;;;3.87;;
3999;SDS011;2014;53.604;10.112;2022-10-16T18:36:28;4.90;;;3.03;;
3999;SDS011;2014;53.604;10.112;2022-10-16T18:38:56;5.33;;;3.67;;
3999;SDS011;2014;53.604;10.112;2022-10-16T18:41:29;9.40;;;3.70;;
3999;SDS011;2014;53.604;10.112;2022-10-16T18:43:57;9.80;;;3.10;;
3999;SDS011;2014;53.604;10.112;2022-10-16T18:46:25;6.57;;;4.30;;
3999;SDS011;2014;53.604;10.112;2022-10-16T18:48:54;13.90;;;4.50;;
3999;SDS011;2014;53.604;10.112;2022-10-16T18:51:23;12.93;;;4.80;;
3999;SDS011;2014;53.604;10.112;2022-10-16T18:53:51;5.20;;;4.67;;
3999;SDS011;2014;53.604;10.112;2022-10-16T18:56:20;6.13;;;4.90;;
3999;SDS011;2014;53.604;10.112;2022-10-16T18:58:49;9.10;;;5.30;;
3999;SDS011;2014;53.604;10.112;2022-10-16T19:01:21;9.97;;;5.00;;
3999;SDS011;2014;53.604;10.112;2022-10-16T19:03:52;8.57;;;5.53;;
3999;SDS011;2014;53.604;10.112;2022-10-16T19:06:19;6.57;;;5.10;;
3999;SDS011;2014;53.604;10.112;2022-10-16T19:08:47;7.63;;;5.13;;
3999;SDS011;2014;53.604;10.112;2022-10-16T19:11:15;8.83;;;4.47;;
3999;SDS011;2014;53.604;10.112;2022-10-16T19:13:43;8.97;;;5.67;;
3999;SDS011;2014;53.604;10.112;2022-10-16T19:16:14;10.13;;;5.80;;
3999;SDS011;2014;53.604;10.112;2022-10-16T19:18:41;10.10;;;6.80;;
3999;SDS011;2014;53.604;10.112;2022-10-16T19:21:09;10.90;;;5.50;;
3999;SDS011;2014;53.604;10.112;2022-10-16T19:23:37;9.57;;;6.67;;
3999;SDS011;2014;53.604;10.112;2022-10-16T19:26:05;11.60;;;5.90;;
3999;SDS011;2014;53.604;10.112;2022-10-16T19:28:32;6.13;;;5.47;;
3999;SDS011;2014;53.604;10.112;2022-10-16T19:31:01;9.10;;;5.67;;
3999;SDS011;2014;53.604;10.112;2022-10-16T19:33:30;8.40;;;5.27;;
3999;SDS011;2014;53.604;10.112;2022-10-16T19:36:05;7.70;;;5.17;;
3999;SDS011;2014;53.604;10.112;2022-10-16T19:38:33;7.03;;;5.07;;
3999;SDS011;2014;53.604;10.112;2022-10-16T19:41:03;11.00;;;6.10;;
3999;SDS011;2014;53.604;10.112;2022-10-16T19:43:31;9.53;;;5.80;;
3999;SDS011;2014;53.604;10.112;2022-10-16T19:46:01;6.00;;;5.23;;
3999;SDS011;2014;53.604;10.112;2022-10-16T19:48:29;10.43;;;4.70;;
3999;SDS011;2014;53.604;10.112;2022-10-16T19:50:57;14.17;;;5.43;;
3999;SDS011;2014;53.604;10.112;2022-10-16T19:53:24;7.83;;;5.87;;
3999;SDS011;2014;53.604;10.112;2022-10-16T19:55:52;6.80;;;5.37;;
3999;SDS011;2014;53.604;10.112;2022-10-16T19:58:19;13.43;;;5.83;;
3999;SDS011;2014;53.604;10.112;2022-10-16T20:00:47;9.13;;;5.80;;
3999;SDS011;2014;53.604;10.112;2022-10-16T20:03:14;6.57;;;5.97;;
3999;SDS011;2014;53.604;10.112;2022-10-16T20:05:50;10.77;;;6.10;;
3999;SDS011;2014;53.604;10.112;2022-10-16T20:08:19;7.80;;;5.20;;
3999;SDS011;2014;53.604;10.112;2022-10-16T20:10:48;6.20;;;5.60;;
3999;SDS011;2014;53.604;10.112;2022-10-16T20:13:16;5.87;;;5.40;;
3999;SDS011;2014;53.604;10.112;2022-10-16T20:15:46;25.27;;;6.77;;
3999;SDS011;2014;53.604;10.112;2022-10-16T20:18:14;11.73;;;6.60;;
3999;SDS011;2014;53.604;10.112;2022-10-16T20:20:44;7.50;;;5.30;;
3999;SDS011;2014;53.604;10.112;2022-10-16T20:23:18;8.87;;;6.37;;
3999;SDS011;2014;53.604;10.112;2022-10-16T20:25:45;8.70;;;6.07;;
3999;SDS011;2014;53.604;10.112;2022-10-16T20:28:13;7.40;;;5.50;;
3999;SDS011;2014;53.604;10.112;2022-10-16T20:30:43;14.60;;;7.03;;
3999;SDS011;2014;53.604;10.112;2022-10-16T20:33:10;11.30;;;6.33;;
3999;SDS011;2014;53.604;10.112;2022-10-16T20:35:38;21.43;;;7.50;;
3999;SDS011;2014;53.604;10.112;2022-10-16T20:38:06;13.73;;;6.70;;
3999;SDS011;2014;53.604;10.112;2022-10-16T20:40:35;25.07;;;7.33;;
3999;SDS011;2014;53.604;10.112;2022-10-16T20:43:03;8.10;;;6.27;;
3999;SDS011;2014;53.604;10.112;2022-10-16T20:45:31;13.40;;;6.73;;
3999;SDS011;2014;53.604;10.112;2022-10-16T20:47:58;7.40;;;6.70;;
3999;SDS011;2014;53.604;10.112;2022-10-16T20:50:28;17.13;;;6.83;;
3999;SDS011;2014;53.604;10.112;2022-10-16T20:52:56;12.67;;;7.60;;
3999;SDS011;2014;53.604;10.112;2022-10-16T20:55:25;8.70;;;6.43;;
3999;SDS011;2014;53.604;10.112;2022-10-16T20:57:54;10.67;;;7.20;;
3999;SDS011;2014;53.604;10.112;2022-10-16T21:00:21;7.43;;;6.60;;
3999;SDS011;2014;53.604;10.112;2022-10-16T21:02:49;8.57;;;6.90;;
3999;SDS011;2014;53.604;10.112;2022-10-16T21:05:16;9.47;;;6.90;;
3999;SDS011;2014;53.604;10.112;2022-10-16T21:07:44;7.93;;;6.87;;
3999;SDS011;2014;53.604;10.112;2022-10-16T21:10:11;12.53;;;6.73;;
3999;SDS011;2014;53.604;10.112;2022-10-16T21:12:39;8.13;;;5.73;;
3999;SDS011;2014;53.604;10.112;2022-10-16T21:15:08;8.40;;;6.27;;
3999;SDS011;2014;53.604;10.112;2022-10-16T21:17:42;10.70;;;6.37;;
3999;SDS011;2014;53.604;10.112;2022-10-16T21:20:10;10.77;;;6.20;;
3999;SDS011;2014;53.604;10.112;2022-10-16T21:22:37;9.40;;;6.17;;
3999;SDS011;2014;53.604;10.112;2022-10-16T21:25:05;7.40;;;6.03;;
3999;SDS011;2014;53.604;10.112;2022-10-16T21:27:39;12.13;;;5.80;;
3999;SDS011;2014;53.604;10.112;2022-10-16T21:30:12;8.60;;;5.70;;
3999;SDS011;2014;53.604;10.112;2022-10-16T21:32:39;6.53;;;5.90;;
3999;SDS011;2014;53.604;10.112;2022-10-16T21:35:07;12.30;;;5.87;;
3999;SDS011;2014;53.604;10.112;2022-10-16T21:37:40;4.83;;;4.53;;
3999;SDS011;2014;53.604;10.112;2022-10-16T21:40:08;6.80;;;5.20;;
3999;SDS011;2014;53.604;10.112;2022-10-16T21:42:36;5.97;;;4.67;;
3999;SDS011;2014;53.604;10.112;2022-10-16T21:45:03;6.10;;;4.53;;
3999;SDS011;2014;53.604;10.112;2022-10-16T21:47:32;4.80;;;4.40;;
3999;SDS011;2014;53.604;10.112;2022-10-16T21:49:59;11.23;;;5.40;;
3999;SDS011;2014;53.604;10.112;2022-10-16T21:52:28;4.50;;;4.27;;
3999;SDS011;2014;53.604;10.112;2022-10-16T21:54:55;7.13;;;6.00;;
3999;SDS011;2014;53.604;10.112;2022-10-16T21:57:23;8.87;;;5.40;;
3999;SDS011;2014;53.604;10.112;2022-10-16T21:59:50;7.40;;;5.80;;
3999;SDS011;2014;53.604;10.112;2022-10-16T22:02:19;6.83;;;4.80;;
3999;SDS011;2014;53.604;10.112;2022-10-16T22:04:47;7.40;;;5.13;;
3999;SDS011;2014;53.604;10.112;2022-10-16T22:07:15;5.07;;;4.00;;
3999;SDS011;2014;53.604;10.112;2022-10-16T22:09:42;8.90;;;5.13;;
3999;SDS011;2014;53.604;10.112;2022-10-16T22:12:10;7.80;;;4.50;;
3999;SDS011;2014;53.604;10.112;2022-10-16T22:14:38;5.73;;;4.57;;
3999;SDS011;2014;53.604;10.112;2022-10-16T22:17:06;6.43;;;4.10;;
3999;SDS011;2014;53.604;10.112;2022-10-16T22:19:34;10.30;;;5.67;;
3999;SDS011;2014;53.604;10.112;2022-10-16T22:22:03;8.03;;;4.37;;
3999;SDS011;2014;53.604;10.112;2022-10-16T22:24:30;6.40;;;4.83;;
3999;SDS011;2014;53.604;10.112;2022-10-16T22:26:58;3.53;;;2.73;;
3999;SDS011;2014;53.604;10.112;2022-10-16T22:29:26;2.87;;;2.57;;
3999;SDS011;2014;53.604;10.112;2022-10-16T22:31:53;3.33;;;2.90;;
3999;SDS011;2014;53.604;10.112;2022-10-16T22:34:20;5.87;;;4.03;;
3999;SDS011;2014;53.604;10.112;2022-10-16T22:36:48;3.13;;;2.83;;
3999;SDS011;2014;53.604;10.112;2022-10-16T22:39:19;3.87;;;3.43;;
3999;SDS011;2014;53.604;10.112;2022-10-16T22:41:47;12.63;;;2.60;;
3999;SDS011;2014;53.604;10.112;2022-10-16T22:44:14;4.83;;;2.83;;
3999;SDS011;2014;53.604;10.112;2022-10-16T22:46:41;14.00;;;3.23;;
3999;SDS011;2014;53.604;10.112;2022-10-16T22:49:08;6.60;;;2.30;;
3999;SDS011;2014;53.604;10.112;2022-10-16T22:51:36;3.20;;;2.77;;
3999;SDS011;2014;53.604;10.112;2022-10-16T22:54:03;6.10;;;2.97;;
3999;SDS011;2014;53.604;10.112;2022-10-16T22:56:32;4.07;;;3.40;;
3999;SDS011;2014;53.604;10.112;2022-10-16T22:58:59;3.00;;;2.50;;
3999;SDS011;2014;53.604;10.112;2022-10-16T23:01:27;2.97;;;2.77;;
3999;SDS011;2014;53.604;10.112;2022-10-16T23:03:55;3.47;;;3.17;;
3999;SDS011;2014;53.604;10.112;2022-10-16T23:06:25;6.33;;;3.10;;
3999;SDS011;2014;53.604;10.112;2022-10-16T23:08:53;5.80;;;2.30;;
3999;SDS011;2014;53.604;10.112;2022-10-16T23:11:21;2.53;;;2.43;;
3999;SDS011;2014;53.604;10.112;2022-10-16T23:13:50;2.73;;;2.53;;
3999;SDS011;2014;53.604;10.112;2022-10-16T23:16:18;4.53;;;3.00;;
3999;SDS011;2014;53.604;10.112;2022-10-16T23:18:45;4.47;;;2.33;;
3999;SDS011;2014;53.604;10.112;2022-10-16T23:21:15;3.60;;;3.23;;
3999;SDS011;2014;53.604;10.112;2022-10-16T23:23:45;7.20;;;2.80;;
3999;SDS011;2014;53.604;10.112;2022-10-16T23:26:21;3.23;;;2.50;;
3999;SDS011;2014;53.604;10.112;2022-10-16T23:28:50;11.33;;;3.17;;
3999;SDS011;2014;53.604;10.112;2022-10-16T23:31:17;3.03;;;2.37;;
3999;SDS011;2014;53.604;10.112;2022-10-16T23:33:45;4.50;;;3.13;;
3999;SDS011;2014;53.604;10.112;2022-10-16T23:36:13;5.37;;;2.80;;
3999;SDS011;2014;53.604;10.112;2022-10-16T23:38:40;4.20;;;2.43;;
3999;SDS011;2014;53.604;10.112;2022-10-16T23:41:08;2.70;;;2.40;;
3999;SDS011;2014;53.604;10.112;2022-10-16T23:43:36;4.70;;;2.43;;
3999;SDS011;2014;53.604;10.112;2022-10-16T23:46:06;2.70;;;2.50;;
3999;SDS011;2014;53.604;10.112;2022-10-16T23:48:34;3.30;;;2.90;;
3999;SDS011;2014;53.604;10.112;2022-10-16T23:51:02;3.30;;;2.17;;
3999;SDS011;2014;53.604;10.112;2022-10-16T23:53:30;2.77;;;2.57;;
3999;SDS011;2014;53.604;10.112;2022-10-16T23:55:57;2.40;;;2.27;;
3999;SDS011;2014;53.604;10.112;2022-10-16T23:58:24;3.40;;;1.93;;
